createdAt,value
2023-05-17T00:00:39.878Z,2.83
2023-05-17T00:03:06.677Z,2.83
2023-05-17T00:05:33.558Z,2.83
2023-05-17T00:08:00.346Z,2.40
2023-05-17T00:10:27.279Z,3.17
2023-05-17T00:12:54.153Z,2.15
2023-05-17T00:15:20.984Z,2.70
2023-05-17T00:17:47.885Z,2.40
2023-05-17T00:20:14.837Z,2.40
2023-05-17T00:22:43.193Z,2.77
2023-05-17T00:25:09.957Z,2.73
2023-05-17T00:27:36.920Z,2.63
2023-05-17T00:30:04.303Z,2.37
2023-05-17T00:32:33.910Z,2.63
2023-05-17T00:35:00.773Z,2.80
2023-05-17T00:37:27.590Z,2.53
2023-05-17T00:39:54.336Z,3.23
2023-05-17T00:42:21.147Z,2.93
2023-05-17T00:44:48.093Z,2.60
2023-05-17T00:47:14.931Z,2.63
2023-05-17T00:49:41.764Z,2.97
2023-05-17T00:52:11.054Z,3.00
2023-05-17T00:54:38.172Z,2.67
2023-05-17T00:57:06.547Z,2.53
2023-05-17T00:59:34.691Z,2.60
2023-05-17T01:02:04.345Z,2.27
2023-05-17T01:04:31.641Z,2.93
2023-05-17T01:06:59.205Z,2.90
2023-05-17T01:09:26.106Z,3.73
2023-05-17T01:12:18.785Z,2.90
2023-05-17T01:15:28.465Z,3.13
2023-05-17T01:18:25.442Z,3.03
2023-05-17T01:20:57.308Z,3.27
2023-05-17T01:24:23.317Z,2.70
2023-05-17T01:26:54.548Z,2.60
2023-05-17T01:29:26.709Z,2.70
2023-05-17T01:31:55.466Z,2.70
2023-05-17T01:34:29.457Z,3.13
2023-05-17T01:36:58.156Z,3.87
2023-05-17T01:39:25.398Z,3.20
2023-05-17T01:42:09.391Z,3.70
2023-05-17T01:44:46.856Z,3.07
2023-05-17T01:47:41.215Z,3.05
2023-05-17T01:50:12.586Z,4.40
2023-05-17T01:53:10.500Z,3.50
2023-05-17T01:55:52.768Z,3.10
2023-05-17T01:58:25.173Z,3.00
2023-05-17T02:00:56.598Z,3.60
2023-05-17T02:03:23.622Z,4.32
2023-05-17T02:05:50.693Z,3.83
2023-05-17T02:08:18.196Z,3.27
2023-05-17T02:10:45.248Z,3.07
2023-05-17T02:13:12.765Z,2.93
2023-05-17T02:15:39.520Z,2.80
2023-05-17T02:18:06.787Z,4.73
2023-05-17T02:20:33.647Z,2.97
2023-05-17T02:23:01.445Z,3.07
2023-05-17T02:25:28.573Z,3.77
2023-05-17T02:27:55.517Z,3.20
2023-05-17T02:30:23.035Z,3.77
2023-05-17T02:32:51.557Z,3.70
2023-05-17T02:35:18.521Z,4.47
2023-05-17T02:37:45.562Z,3.13
2023-05-17T02:40:12.867Z,3.57
2023-05-17T02:42:39.660Z,3.40
2023-05-17T02:45:07.346Z,3.47
2023-05-17T02:47:34.181Z,2.37
2023-05-17T02:50:01.124Z,2.63
2023-05-17T02:52:27.888Z,3.00
2023-05-17T02:54:54.721Z,2.93
2023-05-17T02:57:21.486Z,3.77
2023-05-17T02:59:48.406Z,3.07
2023-05-17T03:02:15.251Z,4.37
2023-05-17T03:04:42.157Z,2.73
2023-05-17T03:07:09.021Z,2.53
2023-05-17T03:09:35.879Z,3.30
2023-05-17T03:12:03.934Z,2.93
2023-05-17T03:14:33.670Z,2.93
2023-05-17T03:17:00.543Z,3.47
2023-05-17T03:19:27.534Z,3.50
2023-05-17T03:21:54.595Z,4.00
2023-05-17T03:24:21.489Z,3.37
2023-05-17T03:26:48.291Z,3.83
2023-05-17T03:29:15.073Z,2.40
2023-05-17T03:31:42.032Z,2.63
2023-05-17T03:34:08.879Z,2.87
2023-05-17T03:36:35.814Z,2.73
2023-05-17T03:39:02.711Z,2.80
2023-05-17T03:41:29.674Z,2.90
2023-05-17T03:43:56.506Z,2.83
2023-05-17T03:46:23.470Z,2.53
2023-05-17T03:48:51.166Z,2.60
2023-05-17T03:51:18.389Z,2.40
2023-05-17T03:53:45.249Z,2.10
2023-05-17T03:56:12.169Z,2.30
2023-05-17T03:58:39.255Z,2.43
2023-05-17T04:01:06.121Z,2.50
2023-05-17T04:03:33.057Z,2.70
2023-05-17T04:06:08.589Z,2.10
2023-05-17T04:08:36.007Z,3.73
2023-05-17T04:11:13.465Z,2.33
2023-05-17T04:13:42.315Z,2.70
2023-05-17T04:16:09.952Z,2.90
2023-05-17T04:18:38.669Z,2.20
2023-05-17T04:21:06.714Z,2.20
2023-05-17T04:23:34.322Z,2.30
2023-05-17T04:26:01.148Z,2.77
2023-05-17T04:28:27.985Z,3.03
2023-05-17T04:30:56.497Z,2.20
2023-05-17T04:33:24.408Z,2.53
2023-05-17T04:35:54.881Z,2.17
2023-05-17T04:38:22.049Z,2.30
2023-05-17T04:40:48.927Z,2.33
2023-05-17T04:43:16.523Z,1.83
2023-05-17T04:45:43.780Z,2.37
2023-05-17T04:48:12.010Z,2.40
2023-05-17T04:50:38.922Z,2.28
2023-05-17T04:53:05.792Z,2.80
2023-05-17T04:55:32.564Z,3.97
2023-05-17T04:57:59.388Z,2.27
2023-05-17T05:00:27.070Z,2.13
2023-05-17T05:02:53.960Z,2.40
2023-05-17T05:05:20.869Z,2.10
2023-05-17T05:07:47.597Z,2.80
2023-05-17T05:10:14.450Z,2.30
2023-05-17T05:12:41.242Z,2.13
2023-05-17T05:15:09.037Z,2.40
2023-05-17T05:17:35.978Z,1.67
2023-05-17T05:20:03.792Z,2.30
2023-05-17T05:22:30.668Z,1.93
2023-05-17T05:24:57.438Z,2.87
2023-05-17T05:27:24.302Z,4.22
2023-05-17T05:29:51.398Z,2.60
2023-05-17T05:32:18.932Z,2.20
2023-05-17T05:34:46.054Z,3.40
2023-05-17T05:37:12.887Z,2.42
2023-05-17T05:39:41.794Z,2.65
2023-05-17T05:42:08.549Z,3.13
2023-05-17T05:44:35.378Z,2.50
2023-05-17T05:47:02.170Z,3.20
2023-05-17T05:49:29.078Z,2.65
2023-05-17T05:51:55.876Z,2.05
2023-05-17T05:54:22.787Z,3.27
2023-05-17T05:56:51.785Z,2.97
2023-05-17T05:59:18.590Z,2.60
2023-05-17T06:01:45.685Z,2.75
2023-05-17T06:04:12.536Z,2.05
2023-05-17T06:06:39.517Z,2.15
2023-05-17T06:09:07.526Z,3.00
2023-05-17T06:11:34.417Z,2.35
2023-05-17T06:14:01.173Z,1.90
2023-05-17T06:16:28.056Z,1.95
2023-05-17T06:18:54.948Z,2.17
2023-05-17T06:21:25.476Z,2.25
2023-05-17T06:23:53.045Z,1.77
2023-05-17T06:26:19.880Z,2.40
2023-05-17T06:28:49.718Z,1.93
2023-05-17T06:31:17.173Z,2.70
2023-05-17T06:33:45.117Z,2.10
2023-05-17T06:36:11.893Z,1.75
2023-05-17T06:38:40.735Z,2.08
2023-05-17T06:41:07.505Z,2.20
2023-05-17T06:43:35.730Z,1.80
2023-05-17T06:46:06.659Z,2.92
2023-05-17T06:48:33.573Z,1.75
2023-05-17T06:51:00.746Z,1.80
2023-05-17T06:53:27.598Z,2.05
2023-05-17T06:55:54.598Z,2.53
2023-05-17T06:58:21.373Z,1.30
2023-05-17T07:00:48.152Z,1.83
2023-05-17T07:03:15.103Z,1.77
2023-05-17T07:05:42.150Z,1.58
2023-05-17T07:08:08.900Z,1.92
2023-05-17T07:10:35.813Z,1.95
2023-05-17T07:13:02.773Z,1.20
2023-05-17T07:15:29.821Z,1.10
2023-05-17T07:17:56.983Z,1.50
2023-05-17T07:20:23.762Z,1.33
2023-05-17T07:22:50.577Z,1.98
2023-05-17T07:25:21.019Z,2.33
2023-05-17T07:27:47.857Z,1.70
2023-05-17T07:30:14.812Z,2.35
2023-05-17T07:32:41.645Z,1.05
2023-05-17T07:35:08.661Z,1.33
2023-05-17T07:37:36.049Z,1.23
2023-05-17T07:40:05.193Z,1.58
2023-05-17T07:42:33.316Z,1.30
2023-05-17T07:45:00.196Z,1.40
2023-05-17T07:47:27.055Z,1.23
2023-05-17T07:49:53.838Z,1.52
2023-05-17T07:52:20.639Z,1.10
2023-05-17T07:54:47.437Z,1.27
2023-05-17T07:57:14.208Z,1.27
2023-05-17T07:59:41.072Z,1.08
2023-05-17T08:02:08.159Z,1.20
2023-05-17T08:04:35.440Z,1.70
2023-05-17T08:07:02.956Z,1.10
2023-05-17T08:09:29.743Z,1.05
2023-05-17T08:11:56.604Z,0.90
2023-05-17T08:14:24.710Z,0.98
2023-05-17T08:16:51.837Z,1.75
2023-05-17T08:19:18.843Z,1.13
2023-05-17T08:21:46.423Z,0.88
2023-05-17T08:24:13.578Z,1.13
2023-05-17T08:26:41.191Z,1.25
2023-05-17T08:29:07.994Z,1.33
2023-05-17T08:31:34.863Z,1.17
2023-05-17T08:34:01.747Z,1.20
2023-05-17T08:36:28.649Z,0.65
2023-05-17T08:38:55.554Z,1.02
2023-05-17T08:41:22.796Z,1.05
2023-05-17T08:43:51.028Z,1.00
2023-05-17T08:46:21.685Z,0.98
2023-05-17T08:48:51.983Z,1.65
2023-05-17T08:51:20.697Z,0.90
2023-05-17T08:53:50.579Z,0.73
2023-05-17T08:56:21.451Z,0.70
2023-05-17T08:58:57.086Z,0.90
2023-05-17T09:01:26.436Z,0.80
2023-05-17T09:03:54.856Z,1.63
2023-05-17T09:06:24.083Z,1.10
2023-05-17T09:08:54.577Z,1.17
2023-05-17T09:11:30.280Z,1.15
2023-05-17T09:14:03.352Z,1.00
2023-05-17T09:16:31.655Z,0.90
2023-05-17T09:19:00.265Z,0.93
2023-05-17T09:21:30.926Z,1.40
2023-05-17T09:24:06.199Z,0.70
2023-05-17T09:26:46.192Z,0.85
2023-05-17T09:29:18.727Z,0.93
2023-05-17T09:31:45.539Z,0.82
2023-05-17T09:34:12.690Z,0.93
2023-05-17T09:36:44.065Z,0.93
2023-05-17T09:39:13.227Z,0.80
2023-05-17T09:41:46.564Z,0.73
2023-05-17T09:44:15.110Z,0.75
2023-05-17T09:46:47.168Z,1.52
2023-05-17T09:49:16.492Z,0.88
2023-05-17T09:51:49.722Z,1.23
2023-05-17T09:54:17.918Z,0.98
2023-05-17T09:56:45.475Z,1.30
2023-05-17T09:59:15.170Z,1.10
2023-05-17T10:01:45.803Z,1.20
2023-05-17T10:04:13.878Z,0.80
2023-05-17T10:09:17.070Z,0.65
2023-05-17T10:11:47.351Z,0.70
2023-05-17T10:14:38.373Z,0.70
2023-05-17T10:17:06.645Z,1.00
2023-05-17T10:19:34.126Z,0.80
2023-05-17T10:22:21.250Z,0.82
2023-05-17T10:24:51.633Z,0.93
2023-05-17T10:27:18.963Z,0.70
2023-05-17T10:29:49.935Z,0.82
2023-05-17T10:32:19.613Z,0.80
2023-05-17T10:35:01.605Z,1.00
2023-05-17T10:37:36.869Z,0.80
2023-05-17T10:40:04.500Z,1.00
2023-05-17T10:42:32.482Z,0.60
2023-05-17T10:45:01.648Z,1.30
2023-05-17T10:47:34.986Z,0.90
2023-05-17T10:50:08.632Z,0.70
2023-05-17T10:52:46.622Z,0.60
2023-05-17T10:55:13.629Z,0.90
2023-05-17T10:57:49.632Z,0.55
2023-05-17T11:00:21.976Z,0.70
2023-05-17T11:02:50.426Z,0.60
2023-05-17T11:05:25.222Z,1.10
2023-05-17T11:07:52.079Z,0.93
2023-05-17T11:10:18.868Z,0.70
2023-05-17T11:12:55.342Z,0.77
2023-05-17T11:15:26.620Z,0.88
2023-05-17T11:17:54.125Z,1.00
2023-05-17T11:20:27.622Z,0.82
2023-05-17T11:23:16.786Z,1.15
2023-05-17T11:25:44.558Z,0.80
2023-05-17T11:28:22.392Z,1.13
2023-05-17T11:30:54.125Z,0.85
2023-05-17T11:33:45.348Z,1.00
2023-05-17T11:36:21.398Z,0.80
2023-05-17T11:39:13.680Z,1.30
2023-05-17T11:41:51.305Z,1.13
2023-05-17T11:44:34.746Z,1.10
2023-05-17T11:47:09.507Z,0.90
2023-05-17T11:49:40.776Z,0.82
2023-05-17T11:52:08.701Z,1.15
2023-05-17T11:54:40.140Z,1.00
2023-05-17T11:57:08.307Z,0.95
2023-05-17T11:59:40.006Z,1.00
2023-05-17T12:02:07.568Z,1.00
2023-05-17T12:04:38.197Z,0.90
2023-05-17T12:07:09.225Z,1.23
2023-05-17T12:09:39.550Z,1.27
2023-05-17T12:12:06.663Z,1.35
2023-05-17T12:14:33.898Z,1.33
2023-05-17T12:17:05.778Z,1.45
2023-05-17T12:19:33.077Z,1.02
2023-05-17T12:22:14.518Z,1.10
2023-05-17T12:24:43.015Z,1.00
2023-05-17T12:27:10.748Z,1.30
2023-05-17T12:29:39.408Z,1.17
2023-05-17T12:32:10.474Z,1.40
2023-05-17T12:34:38.181Z,1.38
2023-05-17T12:37:11.048Z,1.42
2023-05-17T12:39:38.413Z,1.65
2023-05-17T12:42:06.423Z,1.00
2023-05-17T12:44:33.330Z,1.23
2023-05-17T12:47:03.316Z,1.48
2023-05-17T12:49:38.010Z,1.58
2023-05-17T12:52:05.654Z,1.73
2023-05-17T12:54:33.496Z,1.25
2023-05-17T12:57:12.832Z,1.40
2023-05-17T12:59:52.324Z,1.63
2023-05-17T13:02:23.707Z,1.40
2023-05-17T13:04:50.875Z,1.73
2023-05-17T13:07:24.741Z,1.42
2023-05-17T13:09:52.845Z,1.48
2023-05-17T13:12:24.785Z,1.20
2023-05-17T13:14:56.551Z,2.25
2023-05-17T13:17:40.524Z,1.42
2023-05-17T13:20:10.524Z,1.23
2023-05-17T13:22:46.515Z,1.00
2023-05-17T13:25:15.661Z,1.20
2023-05-17T13:27:46.731Z,0.82
2023-05-17T13:30:13.819Z,1.20
2023-05-17T13:32:40.853Z,1.17
2023-05-17T13:35:08.435Z,1.33
2023-05-17T13:37:36.118Z,1.63
2023-05-17T13:40:09.212Z,1.40
2023-05-17T13:42:36.765Z,1.55
2023-05-17T13:45:04.035Z,1.40
2023-05-17T13:47:34.134Z,1.20
2023-05-17T13:50:01.358Z,1.63
2023-05-17T13:52:28.249Z,1.20
2023-05-17T13:54:55.084Z,1.65
2023-05-17T13:57:21.949Z,1.70
2023-05-17T13:59:48.955Z,0.90
2023-05-17T14:02:15.824Z,1.27
2023-05-17T14:04:42.697Z,1.65
2023-05-17T14:07:10.610Z,1.42
2023-05-17T14:09:37.691Z,1.20
2023-05-17T14:12:05.137Z,1.30
2023-05-17T14:14:32.115Z,1.60
2023-05-17T14:16:59.090Z,0.98
2023-05-17T14:19:28.668Z,1.00
2023-05-17T14:21:55.471Z,1.67
2023-05-17T14:24:22.456Z,1.15
2023-05-17T14:26:49.252Z,1.20
2023-05-17T14:29:16.551Z,1.10
2023-05-17T14:31:43.466Z,1.45
2023-05-17T14:34:10.318Z,1.30
2023-05-17T14:36:39.342Z,1.15
2023-05-17T14:39:06.158Z,1.23
2023-05-17T14:41:33.140Z,1.40
2023-05-17T14:44:00.023Z,1.13
2023-05-17T14:46:26.869Z,0.77
2023-05-17T14:48:53.638Z,2.70
2023-05-17T14:51:20.405Z,1.48
2023-05-17T14:53:47.318Z,1.95
2023-05-17T14:56:15.198Z,1.30
2023-05-17T14:58:42.233Z,1.30
2023-05-17T15:01:09.187Z,1.25
2023-05-17T15:03:37.060Z,2.08
2023-05-17T15:06:07.567Z,1.42
2023-05-17T15:08:35.798Z,1.50
2023-05-17T15:11:02.905Z,1.33
2023-05-17T15:13:29.873Z,1.08
2023-05-17T15:15:56.858Z,1.35
2023-05-17T15:18:25.937Z,1.30
2023-05-17T15:20:52.721Z,1.27
2023-05-17T15:23:19.604Z,1.70
2023-05-17T15:25:46.506Z,1.30
2023-05-17T15:28:14.012Z,2.13
2023-05-17T15:30:41.926Z,1.55
2023-05-17T15:33:09.278Z,2.75
2023-05-17T15:35:37.096Z,1.98
2023-05-17T15:38:06.118Z,1.35
2023-05-17T15:40:33.889Z,1.02
2023-05-17T15:43:00.701Z,1.73
2023-05-17T15:45:29.240Z,1.40
2023-05-17T15:47:57.506Z,1.27
2023-05-17T15:50:24.520Z,0.80
2023-05-17T15:52:51.365Z,1.38
2023-05-17T15:55:18.290Z,1.30
2023-05-17T15:57:46.465Z,1.02
2023-05-17T16:00:14.075Z,1.00
2023-05-17T16:02:41.052Z,1.38
2023-05-17T16:05:08.612Z,1.60
2023-05-17T16:07:35.438Z,1.88
2023-05-17T16:10:02.257Z,1.42
2023-05-17T16:12:29.014Z,1.40
2023-05-17T16:14:56.101Z,1.45
2023-05-17T16:17:24.020Z,1.00
2023-05-17T16:19:51.100Z,1.65
2023-05-17T16:22:17.980Z,1.35
2023-05-17T16:24:45.804Z,1.20
2023-05-17T16:27:12.617Z,1.42
2023-05-17T16:29:40.320Z,1.45
2023-05-17T16:32:08.252Z,1.33
2023-05-17T16:34:35.771Z,1.30
2023-05-17T16:37:05.003Z,1.30
2023-05-17T16:39:32.736Z,1.50
2023-05-17T16:41:59.828Z,1.30
2023-05-17T16:44:26.688Z,1.10
2023-05-17T16:46:53.551Z,1.30
2023-05-17T16:49:20.400Z,1.52
2023-05-17T16:51:47.215Z,1.40
2023-05-17T16:54:14.136Z,1.85
2023-05-17T16:56:42.069Z,1.45
2023-05-17T16:59:08.906Z,1.15
2023-05-17T17:01:35.753Z,1.33
2023-05-17T17:04:03.702Z,1.40
2023-05-17T17:06:31.416Z,1.00
2023-05-17T17:08:58.165Z,0.93
2023-05-17T17:11:24.887Z,1.50
2023-05-17T17:13:52.769Z,1.70
2023-05-17T17:16:20.427Z,1.50
2023-05-17T17:18:49.766Z,1.60
2023-05-17T17:21:17.100Z,1.42
2023-05-17T17:23:44.412Z,1.23
2023-05-17T17:26:11.538Z,1.17
2023-05-17T17:28:38.766Z,1.20
2023-05-17T17:31:06.648Z,1.27
2023-05-17T17:33:34.325Z,1.80
2023-05-17T17:36:06.829Z,1.10
2023-05-17T17:38:33.711Z,1.27
2023-05-17T17:41:00.769Z,1.00
2023-05-17T17:43:27.511Z,1.60
2023-05-17T17:45:54.232Z,1.63
2023-05-17T17:48:21.161Z,1.13
2023-05-17T17:50:47.953Z,0.98
2023-05-17T17:53:16.197Z,0.82
2023-05-17T17:55:42.986Z,1.38
2023-05-17T17:58:09.946Z,0.90
2023-05-17T18:00:36.835Z,1.00
2023-05-17T18:03:03.904Z,1.00
2023-05-17T18:05:31.125Z,1.30
2023-05-17T18:07:58.101Z,1.27
2023-05-17T18:10:25.029Z,1.15
2023-05-17T18:12:51.977Z,1.23
2023-05-17T18:15:19.085Z,1.35
2023-05-17T18:17:46.240Z,1.55
2023-05-17T18:20:13.146Z,1.10
2023-05-17T18:22:40.015Z,0.95
2023-05-17T18:25:07.182Z,1.23
2023-05-17T18:27:36.596Z,1.00
2023-05-17T18:30:04.446Z,1.00
2023-05-17T18:32:31.385Z,1.00
2023-05-17T18:34:58.255Z,1.10
2023-05-17T18:37:25.111Z,1.00
2023-05-17T18:39:51.936Z,1.10
2023-05-17T18:42:19.463Z,0.88
2023-05-17T18:44:46.366Z,1.00
2023-05-17T18:47:13.302Z,1.00
2023-05-17T18:49:46.469Z,1.40
2023-05-17T18:52:13.808Z,1.23
2023-05-17T18:54:40.785Z,1.10
2023-05-17T18:57:11.243Z,0.95
2023-05-17T18:59:38.165Z,1.13
2023-05-17T19:02:05.166Z,0.90
2023-05-17T19:04:32.352Z,1.60
2023-05-17T19:06:59.342Z,0.90
2023-05-17T19:09:28.599Z,0.80
2023-05-17T19:11:56.425Z,0.90
2023-05-17T19:14:23.190Z,0.80
2023-05-17T19:16:51.620Z,0.90
2023-05-17T19:19:18.655Z,1.10
2023-05-17T19:21:45.564Z,1.00
2023-05-17T19:24:12.438Z,1.27
2023-05-17T19:26:39.273Z,1.33
2023-05-17T19:29:08.578Z,1.00
2023-05-17T19:31:35.515Z,1.13
2023-05-17T19:34:02.365Z,1.00
2023-05-17T19:36:29.239Z,1.25
2023-05-17T19:38:58.093Z,0.80
2023-05-17T19:41:47.835Z,0.88
2023-05-17T19:44:14.593Z,0.90
2023-05-17T19:46:41.796Z,0.98
2023-05-17T19:49:08.757Z,1.00
2023-05-17T19:51:35.560Z,0.90
2023-05-17T19:54:15.840Z,1.00
2023-05-17T19:56:42.598Z,1.00
2023-05-17T19:59:09.489Z,1.08
2023-05-17T20:01:37.554Z,1.00
2023-05-17T20:04:04.597Z,0.93
2023-05-17T20:06:31.647Z,1.45
2023-05-17T20:08:58.433Z,1.50
2023-05-17T20:11:26.108Z,1.30
2023-05-17T20:13:52.933Z,1.20
2023-05-17T20:16:19.726Z,1.17
2023-05-17T20:18:46.598Z,1.33
2023-05-17T20:21:19.474Z,1.08
2023-05-17T20:23:48.554Z,1.10
2023-05-17T20:26:25.424Z,1.50
2023-05-17T20:28:53.204Z,1.55
2023-05-17T20:31:20.135Z,1.05
2023-05-17T20:33:52.932Z,1.20
2023-05-17T20:36:19.835Z,1.38
2023-05-17T20:38:46.803Z,2.05
2023-05-17T20:41:15.759Z,1.30
2023-05-17T20:44:02.321Z,1.25
2023-05-17T20:46:33.283Z,1.35
2023-05-17T20:49:01.008Z,1.20
2023-05-17T20:51:28.009Z,1.40
2023-05-17T20:53:54.804Z,1.33
2023-05-17T20:56:21.628Z,1.35
2023-05-17T20:58:49.111Z,1.05
2023-05-17T21:01:15.974Z,1.48
2023-05-17T21:03:44.394Z,1.23
2023-05-17T21:06:11.305Z,1.45
2023-05-17T21:08:38.647Z,1.27
2023-05-17T21:11:05.497Z,1.02
2023-05-17T21:13:32.347Z,1.42
2023-05-17T21:15:59.201Z,1.23
2023-05-17T21:18:26.338Z,1.00
2023-05-17T21:20:54.932Z,1.65
2023-05-17T21:23:21.795Z,2.13
2023-05-17T21:25:49.062Z,0.90
2023-05-17T21:28:15.988Z,1.20
2023-05-17T21:30:42.908Z,1.17
2023-05-17T21:33:09.774Z,1.02
2023-05-17T21:35:36.597Z,1.20
2023-05-17T21:38:03.342Z,1.17
2023-05-17T21:40:30.371Z,1.20
2023-05-17T21:42:57.876Z,1.63
2023-05-17T21:45:24.734Z,1.33
2023-05-17T21:47:51.594Z,1.60
2023-05-17T21:50:18.598Z,1.30
2023-05-17T21:52:45.561Z,1.77
2023-05-17T21:55:12.342Z,1.23
2023-05-17T21:57:39.142Z,1.35
2023-05-17T22:00:08.272Z,1.05
2023-05-17T22:02:35.895Z,1.20
2023-05-17T22:05:03.175Z,1.70
2023-05-17T22:07:30.063Z,0.98
2023-05-17T22:09:58.182Z,0.90
2023-05-17T22:12:26.184Z,1.10
2023-05-17T22:14:56.120Z,1.40
2023-05-17T22:17:35.267Z,1.45
2023-05-17T22:20:10.200Z,1.33
2023-05-17T22:22:37.853Z,1.08
2023-05-17T22:25:07.472Z,1.10
2023-05-17T22:27:34.665Z,1.30
2023-05-17T22:30:01.597Z,1.20
2023-05-17T22:32:28.431Z,1.45
2023-05-17T22:34:56.267Z,1.15
2023-05-17T22:37:30.245Z,1.00
2023-05-17T22:39:57.011Z,1.45
2023-05-17T22:42:23.874Z,1.17
2023-05-17T22:44:51.278Z,1.42
2023-05-17T22:47:22.582Z,1.17
2023-05-17T22:49:52.823Z,1.10
2023-05-17T22:52:19.940Z,1.10
2023-05-17T22:54:46.753Z,1.15
2023-05-17T22:57:13.545Z,1.75
2023-05-17T22:59:43.714Z,1.50
2023-05-17T23:02:12.197Z,1.63
2023-05-17T23:04:40.352Z,1.20
2023-05-17T23:07:09.713Z,1.30
2023-05-17T23:09:40.379Z,1.05
2023-05-17T23:12:08.918Z,1.43
2023-05-17T23:14:36.557Z,0.90
2023-05-17T23:17:04.574Z,0.98
2023-05-17T23:19:32.838Z,1.10
2023-05-17T23:22:03.140Z,1.70
2023-05-17T23:24:30.132Z,1.40
2023-05-17T23:26:57.661Z,1.17
2023-05-17T23:29:26.024Z,2.10
2023-05-17T23:31:53.388Z,1.27
2023-05-17T23:34:20.893Z,1.20
2023-05-17T23:36:47.719Z,1.47
2023-05-17T23:39:14.512Z,1.20
2023-05-17T23:41:42.218Z,0.90
2023-05-17T23:44:09.036Z,1.10
2023-05-17T23:46:36.310Z,1.27
2023-05-17T23:49:04.835Z,1.00
2023-05-17T23:51:34.614Z,1.10
2023-05-17T23:54:01.675Z,1.13
2023-05-17T23:56:29.957Z,0.90
2023-05-17T23:58:56.689Z,1.60
